sensor_id;sensor_type;location;lat;lon;timestamp;temperature;humidity
20977;DHT22;10647;51.016;3.720;2023-05-16T00:00:07;9.90;99.90
20977;DHT22;10647;51.016;3.720;2023-05-16T00:02:36;9.90;99.90
20977;DHT22;10647;51.016;3.720;2023-05-16T00:05:05;9.80;99.90
20977;DHT22;10647;51.016;3.720;2023-05-16T00:07:33;9.90;99.90
20977;DHT22;10647;51.016;3.720;2023-05-16T00:10:01;9.80;99.90
20977;DHT22;10647;51.016;3.720;2023-05-16T00:12:29;9.80;99.90
20977;DHT22;10647;51.016;3.720;2023-05-16T00:14:58;9.80;99.90
20977;DHT22;10647;51.016;3.720;2023-05-16T00:17:26;9.80;99.90
20977;DHT22;10647;51.016;3.720;2023-05-16T00:19:55;9.70;99.90
20977;DHT22;10647;51.016;3.720;2023-05-16T00:22:24;9.70;99.90
20977;DHT22;10647;51.016;3.720;2023-05-16T00:24:58;9.70;99.90
20977;DHT22;10647;51.016;3.720;2023-05-16T00:27:26;9.70;99.90
20977;DHT22;10647;51.016;3.720;2023-05-16T00:29:54;9.60;99.90
20977;DHT22;10647;51.016;3.720;2023-05-16T00:32:21;9.60;99.90
20977;DHT22;10647;51.016;3.720;2023-05-16T00:34:50;9.60;99.90
20977;DHT22;10647;51.016;3.720;2023-05-16T00:37:20;9.60;99.90
20977;DHT22;10647;51.016;3.720;2023-05-16T00:39:47;9.60;99.90
20977;DHT22;10647;51.016;3.720;2023-05-16T00:42:15;9.50;99.90
20977;DHT22;10647;51.016;3.720;2023-05-16T00:44:42;9.50;99.90
20977;DHT22;10647;51.016;3.720;2023-05-16T00:47:10;9.50;99.90
20977;DHT22;10647;51.016;3.720;2023-05-16T00:49:41;9.50;99.90
20977;DHT22;10647;51.016;3.720;2023-05-16T00:52:09;9.50;99.90
20977;DHT22;10647;51.016;3.720;2023-05-16T00:54:37;9.50;99.90
20977;DHT22;10647;51.016;3.720;2023-05-16T00:57:04;9.50;99.90
20977;DHT22;10647;51.016;3.720;2023-05-16T00:59:34;9.50;99.90
20977;DHT22;10647;51.016;3.720;2023-05-16T01:02:01;9.40;99.90
20977;DHT22;10647;51.016;3.720;2023-05-16T01:04:30;9.50;99.90
20977;DHT22;10647;51.016;3.720;2023-05-16T01:06:58;9.40;99.90
20977;DHT22;10647;51.016;3.720;2023-05-16T01:09:26;9.40;99.90
20977;DHT22;10647;51.016;3.720;2023-05-16T01:12:12;9.30;99.90
20977;DHT22;10647;51.016;3.720;2023-05-16T01:18:01;9.30;99.90
20977;DHT22;10647;51.016;3.720;2023-05-16T01:20:39;9.30;99.90
20977;DHT22;10647;51.016;3.720;2023-05-16T01:23:23;9.20;99.90
20977;DHT22;10647;51.016;3.720;2023-05-16T01:26:09;9.20;99.90
20977;DHT22;10647;51.016;3.720;2023-05-16T01:28:53;9.20;99.90
20977;DHT22;10647;51.016;3.720;2023-05-16T01:31:23;9.20;99.90
20977;DHT22;10647;51.016;3.720;2023-05-16T01:33:51;9.10;99.90
20977;DHT22;10647;51.016;3.720;2023-05-16T01:36:51;9.10;99.90
20977;DHT22;10647;51.016;3.720;2023-05-16T01:39:54;9.10;99.90
20977;DHT22;10647;51.016;3.720;2023-05-16T01:42:32;9.10;99.90
20977;DHT22;10647;51.016;3.720;2023-05-16T01:48:04;9.10;99.90
20977;DHT22;10647;51.016;3.720;2023-05-16T01:50:34;9.10;99.90
20977;DHT22;10647;51.016;3.720;2023-05-16T01:53:14;9.10;99.90
20977;DHT22;10647;51.016;3.720;2023-05-16T01:55:48;9.10;99.90
20977;DHT22;10647;51.016;3.720;2023-05-16T01:58:20;9.10;99.90
20977;DHT22;10647;51.016;3.720;2023-05-16T02:00:48;9.00;99.90
20977;DHT22;10647;51.016;3.720;2023-05-16T02:03:21;9.00;99.90
20977;DHT22;10647;51.016;3.720;2023-05-16T02:05:49;9.00;99.90
20977;DHT22;10647;51.016;3.720;2023-05-16T02:08:16;9.00;99.90
20977;DHT22;10647;51.016;3.720;2023-05-16T02:10:45;9.00;99.90
20977;DHT22;10647;51.016;3.720;2023-05-16T02:13:13;9.00;99.90
20977;DHT22;10647;51.016;3.720;2023-05-16T02:15:41;9.00;99.90
20977;DHT22;10647;51.016;3.720;2023-05-16T02:18:11;9.00;99.90
20977;DHT22;10647;51.016;3.720;2023-05-16T02:20:38;9.00;99.90
20977;DHT22;10647;51.016;3.720;2023-05-16T02:23:06;9.00;99.90
20977;DHT22;10647;51.016;3.720;2023-05-16T02:25:36;9.00;99.90
20977;DHT22;10647;51.016;3.720;2023-05-16T02:28:04;9.00;99.90
20977;DHT22;10647;51.016;3.720;2023-05-16T02:30:32;9.00;99.90
20977;DHT22;10647;51.016;3.720;2023-05-16T02:32:59;9.00;99.90
20977;DHT22;10647;51.016;3.720;2023-05-16T02:35:27;9.00;99.90
20977;DHT22;10647;51.016;3.720;2023-05-16T02:37:55;9.00;99.90
20977;DHT22;10647;51.016;3.720;2023-05-16T02:40:28;8.90;99.90
20977;DHT22;10647;51.016;3.720;2023-05-16T02:42:56;9.00;99.90
20977;DHT22;10647;51.016;3.720;2023-05-16T02:45:24;9.00;99.90
20977;DHT22;10647;51.016;3.720;2023-05-16T02:47:52;8.90;99.90
20977;DHT22;10647;51.016;3.720;2023-05-16T02:50:19;8.90;99.90
20977;DHT22;10647;51.016;3.720;2023-05-16T02:52:47;8.90;99.90
20977;DHT22;10647;51.016;3.720;2023-05-16T02:55:15;8.90;99.90
20977;DHT22;10647;51.016;3.720;2023-05-16T02:57:42;8.80;99.90
20977;DHT22;10647;51.016;3.720;2023-05-16T03:00:11;8.80;99.90
20977;DHT22;10647;51.016;3.720;2023-05-16T03:02:39;8.90;99.90
20977;DHT22;10647;51.016;3.720;2023-05-16T03:05:07;8.80;99.90
20977;DHT22;10647;51.016;3.720;2023-05-16T03:07:37;8.80;99.90
20977;DHT22;10647;51.016;3.720;2023-05-16T03:10:06;8.80;99.90
20977;DHT22;10647;51.016;3.720;2023-05-16T03:12:34;8.80;99.90
20977;DHT22;10647;51.016;3.720;2023-05-16T03:15:01;8.80;99.90
20977;DHT22;10647;51.016;3.720;2023-05-16T03:17:29;8.70;99.90
20977;DHT22;10647;51.016;3.720;2023-05-16T03:19:57;8.70;99.90
20977;DHT22;10647;51.016;3.720;2023-05-16T03:22:24;8.70;99.90
20977;DHT22;10647;51.016;3.720;2023-05-16T03:24:52;8.70;99.90
20977;DHT22;10647;51.016;3.720;2023-05-16T03:27:19;8.70;99.90
20977;DHT22;10647;51.016;3.720;2023-05-16T03:29:47;8.70;99.90
20977;DHT22;10647;51.016;3.720;2023-05-16T03:32:14;8.70;99.90
20977;DHT22;10647;51.016;3.720;2023-05-16T03:34:42;8.70;99.90
20977;DHT22;10647;51.016;3.720;2023-05-16T03:37:09;8.70;99.90
20977;DHT22;10647;51.016;3.720;2023-05-16T03:39:37;8.60;99.90
20977;DHT22;10647;51.016;3.720;2023-05-16T03:42:04;8.60;99.90
20977;DHT22;10647;51.016;3.720;2023-05-16T03:44:33;8.50;99.90
20977;DHT22;10647;51.016;3.720;2023-05-16T03:47:00;8.50;99.90
20977;DHT22;10647;51.016;3.720;2023-05-16T03:49:28;8.50;99.90
20977;DHT22;10647;51.016;3.720;2023-05-16T03:51:55;8.40;99.90
20977;DHT22;10647;51.016;3.720;2023-05-16T03:54:23;8.40;99.90
20977;DHT22;10647;51.016;3.720;2023-05-16T03:56:51;8.40;99.90
20977;DHT22;10647;51.016;3.720;2023-05-16T03:59:18;8.40;99.90
20977;DHT22;10647;51.016;3.720;2023-05-16T04:01:46;8.40;99.90
20977;DHT22;10647;51.016;3.720;2023-05-16T04:04:13;8.40;99.90
20977;DHT22;10647;51.016;3.720;2023-05-16T04:06:43;8.40;99.90
20977;DHT22;10647;51.016;3.720;2023-05-16T04:09:12;8.40;99.90
20977;DHT22;10647;51.016;3.720;2023-05-16T04:11:39;8.40;99.90
20977;DHT22;10647;51.016;3.720;2023-05-16T04:14:07;8.40;99.90
20977;DHT22;10647;51.016;3.720;2023-05-16T04:16:34;8.40;99.90
20977;DHT22;10647;51.016;3.720;2023-05-16T04:19:02;8.50;99.90
20977;DHT22;10647;51.016;3.720;2023-05-16T04:21:29;8.50;99.90
20977;DHT22;10647;51.016;3.720;2023-05-16T04:23:57;8.50;99.90
20977;DHT22;10647;51.016;3.720;2023-05-16T04:26:24;8.60;99.90
20977;DHT22;10647;51.016;3.720;2023-05-16T04:28:53;8.60;99.90
20977;DHT22;10647;51.016;3.720;2023-05-16T04:31:21;8.70;99.90
20977;DHT22;10647;51.016;3.720;2023-05-16T04:33:49;8.80;99.90
20977;DHT22;10647;51.016;3.720;2023-05-16T04:36:18;8.80;99.90
20977;DHT22;10647;51.016;3.720;2023-05-16T04:38:46;8.90;99.90
20977;DHT22;10647;51.016;3.720;2023-05-16T04:41:14;8.90;99.90
20977;DHT22;10647;51.016;3.720;2023-05-16T04:44:01;9.00;99.90
20977;DHT22;10647;51.016;3.720;2023-05-16T04:46:30;9.10;99.90
20977;DHT22;10647;51.016;3.720;2023-05-16T04:48:57;9.10;99.90
20977;DHT22;10647;51.016;3.720;2023-05-16T04:51:25;9.20;99.90
20977;DHT22;10647;51.016;3.720;2023-05-16T04:54:12;9.20;99.90
20977;DHT22;10647;51.016;3.720;2023-05-16T04:56:39;9.20;99.90
20977;DHT22;10647;51.016;3.720;2023-05-16T04:59:07;9.20;99.90
20977;DHT22;10647;51.016;3.720;2023-05-16T05:01:34;9.30;99.90
20977;DHT22;10647;51.016;3.720;2023-05-16T05:04:02;9.30;99.90
20977;DHT22;10647;51.016;3.720;2023-05-16T05:06:30;9.40;99.90
20977;DHT22;10647;51.016;3.720;2023-05-16T05:08:57;9.50;99.90
20977;DHT22;10647;51.016;3.720;2023-05-16T05:11:25;9.60;99.90
20977;DHT22;10647;51.016;3.720;2023-05-16T05:13:52;9.70;99.90
20977;DHT22;10647;51.016;3.720;2023-05-16T05:16:20;9.80;99.90
20977;DHT22;10647;51.016;3.720;2023-05-16T05:18:48;9.80;99.90
20977;DHT22;10647;51.016;3.720;2023-05-16T05:21:15;9.90;99.90
20977;DHT22;10647;51.016;3.720;2023-05-16T05:23:43;10.00;99.90
20977;DHT22;10647;51.016;3.720;2023-05-16T05:26:11;10.00;99.90
20977;DHT22;10647;51.016;3.720;2023-05-16T05:28:39;10.00;99.90
20977;DHT22;10647;51.016;3.720;2023-05-16T05:31:06;10.10;99.90
20977;DHT22;10647;51.016;3.720;2023-05-16T05:33:34;10.20;99.90
20977;DHT22;10647;51.016;3.720;2023-05-16T05:36:01;10.30;99.90
20977;DHT22;10647;51.016;3.720;2023-05-16T05:38:29;10.40;99.90
20977;DHT22;10647;51.016;3.720;2023-05-16T05:40:59;10.50;99.90
20977;DHT22;10647;51.016;3.720;2023-05-16T05:43:27;10.50;99.90
20977;DHT22;10647;51.016;3.720;2023-05-16T05:45:55;10.70;99.90
20977;DHT22;10647;51.016;3.720;2023-05-16T05:48:23;10.70;99.90
20977;DHT22;10647;51.016;3.720;2023-05-16T05:50:50;10.80;99.90
20977;DHT22;10647;51.016;3.720;2023-05-16T05:53:19;10.90;99.90
20977;DHT22;10647;51.016;3.720;2023-05-16T05:55:47;10.90;99.90
20977;DHT22;10647;51.016;3.720;2023-05-16T05:58:16;11.00;99.90
20977;DHT22;10647;51.016;3.720;2023-05-16T06:00:44;11.10;99.90
20977;DHT22;10647;51.016;3.720;2023-05-16T06:03:12;11.20;99.90
20977;DHT22;10647;51.016;3.720;2023-05-16T06:05:40;11.30;99.90
20977;DHT22;10647;51.016;3.720;2023-05-16T06:08:07;11.40;99.90
20977;DHT22;10647;51.016;3.720;2023-05-16T06:10:35;11.50;99.90
20977;DHT22;10647;51.016;3.720;2023-05-16T06:13:03;11.60;99.90
20977;DHT22;10647;51.016;3.720;2023-05-16T06:15:31;11.70;99.90
20977;DHT22;10647;51.016;3.720;2023-05-16T06:18:00;12.00;99.90
20977;DHT22;10647;51.016;3.720;2023-05-16T06:20:27;12.20;99.90
20977;DHT22;10647;51.016;3.720;2023-05-16T06:22:55;12.80;99.90
20977;DHT22;10647;51.016;3.720;2023-05-16T06:25:24;12.90;99.90
20977;DHT22;10647;51.016;3.720;2023-05-16T06:27:51;13.00;99.90
20977;DHT22;10647;51.016;3.720;2023-05-16T06:30:19;13.00;99.90
20977;DHT22;10647;51.016;3.720;2023-05-16T06:32:46;13.00;99.90
20977;DHT22;10647;51.016;3.720;2023-05-16T06:35:14;13.00;99.90
20977;DHT22;10647;51.016;3.720;2023-05-16T06:37:41;13.00;99.90
20977;DHT22;10647;51.016;3.720;2023-05-16T06:40:10;13.20;99.90
20977;DHT22;10647;51.016;3.720;2023-05-16T06:42:38;13.30;99.90
20977;DHT22;10647;51.016;3.720;2023-05-16T06:45:07;13.50;99.90
20977;DHT22;10647;51.016;3.720;2023-05-16T06:47:35;13.40;99.90
20977;DHT22;10647;51.016;3.720;2023-05-16T06:50:03;13.20;99.90
20977;DHT22;10647;51.016;3.720;2023-05-16T06:52:33;13.10;99.90
20977;DHT22;10647;51.016;3.720;2023-05-16T06:55:03;13.10;99.90
20977;DHT22;10647;51.016;3.720;2023-05-16T06:57:34;13.00;99.90
20977;DHT22;10647;51.016;3.720;2023-05-16T07:00:01;13.00;99.90
20977;DHT22;10647;51.016;3.720;2023-05-16T07:02:29;13.10;99.90
20977;DHT22;10647;51.016;3.720;2023-05-16T07:04:57;13.10;99.90
20977;DHT22;10647;51.016;3.720;2023-05-16T07:07:25;13.20;99.90
20977;DHT22;10647;51.016;3.720;2023-05-16T07:09:54;13.20;99.90
20977;DHT22;10647;51.016;3.720;2023-05-16T07:12:27;13.30;99.90
20977;DHT22;10647;51.016;3.720;2023-05-16T07:14:55;13.40;99.90
20977;DHT22;10647;51.016;3.720;2023-05-16T07:17:42;13.40;99.90
20977;DHT22;10647;51.016;3.720;2023-05-16T07:20:11;13.40;99.90
20977;DHT22;10647;51.016;3.720;2023-05-16T07:22:41;13.50;99.90
20977;DHT22;10647;51.016;3.720;2023-05-16T07:25:15;13.60;99.90
20977;DHT22;10647;51.016;3.720;2023-05-16T07:27:46;13.70;99.90
20977;DHT22;10647;51.016;3.720;2023-05-16T07:30:19;14.00;99.90
20977;DHT22;10647;51.016;3.720;2023-05-16T07:32:47;14.60;99.90
20977;DHT22;10647;51.016;3.720;2023-05-16T07:35:15;15.10;99.90
20977;DHT22;10647;51.016;3.720;2023-05-16T07:37:45;15.40;99.90
20977;DHT22;10647;51.016;3.720;2023-05-16T07:40:16;15.50;99.90
20977;DHT22;10647;51.016;3.720;2023-05-16T07:49:29;14.80;99.90
20977;DHT22;10647;51.016;3.720;2023-05-16T07:51:57;14.20;99.90
20977;DHT22;10647;51.016;3.720;2023-05-16T07:54:25;14.20;99.90
20977;DHT22;10647;51.016;3.720;2023-05-16T07:56:53;14.10;99.90
20977;DHT22;10647;51.016;3.720;2023-05-16T07:59:21;14.10;99.90
20977;DHT22;10647;51.016;3.720;2023-05-16T08:01:54;14.30;99.90
20977;DHT22;10647;51.016;3.720;2023-05-16T08:04:23;14.50;99.90
20977;DHT22;10647;51.016;3.720;2023-05-16T08:06:59;14.70;99.90
20977;DHT22;10647;51.016;3.720;2023-05-16T08:09:27;14.80;99.90
20977;DHT22;10647;51.016;3.720;2023-05-16T08:11:54;15.00;99.90
20977;DHT22;10647;51.016;3.720;2023-05-16T08:14:22;15.20;99.90
20977;DHT22;10647;51.016;3.720;2023-05-16T08:16:50;15.50;99.90
20977;DHT22;10647;51.016;3.720;2023-05-16T08:19:29;15.80;99.90
20977;DHT22;10647;51.016;3.720;2023-05-16T08:21:58;16.10;99.90
20977;DHT22;10647;51.016;3.720;2023-05-16T08:24:26;16.10;99.90
20977;DHT22;10647;51.016;3.720;2023-05-16T08:26:53;16.20;99.90
20977;DHT22;10647;51.016;3.720;2023-05-16T08:29:21;16.10;99.90
20977;DHT22;10647;51.016;3.720;2023-05-16T08:31:48;16.00;99.90
20977;DHT22;10647;51.016;3.720;2023-05-16T08:34:16;15.90;99.90
20977;DHT22;10647;51.016;3.720;2023-05-16T08:36:43;15.70;99.90
20977;DHT22;10647;51.016;3.720;2023-05-16T08:39:11;15.50;99.90
20977;DHT22;10647;51.016;3.720;2023-05-16T08:41:39;15.60;99.90
20977;DHT22;10647;51.016;3.720;2023-05-16T08:44:07;15.80;99.90
20977;DHT22;10647;51.016;3.720;2023-05-16T08:46:36;16.30;99.90
20977;DHT22;10647;51.016;3.720;2023-05-16T08:49:08;17.00;99.90
20977;DHT22;10647;51.016;3.720;2023-05-16T08:51:36;17.50;99.90
20977;DHT22;10647;51.016;3.720;2023-05-16T08:54:10;18.20;99.90
20977;DHT22;10647;51.016;3.720;2023-05-16T08:59:34;18.40;99.90
20977;DHT22;10647;51.016;3.720;2023-05-16T09:02:02;18.20;99.90
20977;DHT22;10647;51.016;3.720;2023-05-16T09:04:38;17.80;99.90
20977;DHT22;10647;51.016;3.720;2023-05-16T09:07:06;17.50;99.90
20977;DHT22;10647;51.016;3.720;2023-05-16T09:09:34;17.30;99.90
20977;DHT22;10647;51.016;3.720;2023-05-16T09:12:02;16.90;99.90
20977;DHT22;10647;51.016;3.720;2023-05-16T09:14:29;16.60;99.90
20977;DHT22;10647;51.016;3.720;2023-05-16T09:17:08;16.40;99.90
20977;DHT22;10647;51.016;3.720;2023-05-16T09:19:40;16.40;99.90
20977;DHT22;10647;51.016;3.720;2023-05-16T09:22:14;16.40;99.90
20977;DHT22;10647;51.016;3.720;2023-05-16T09:24:45;16.50;99.90
20977;DHT22;10647;51.016;3.720;2023-05-16T09:27:14;17.00;99.90
20977;DHT22;10647;51.016;3.720;2023-05-16T09:29:43;17.30;99.90
20977;DHT22;10647;51.016;3.720;2023-05-16T09:32:15;17.20;99.90
20977;DHT22;10647;51.016;3.720;2023-05-16T09:34:48;17.30;99.90
20977;DHT22;10647;51.016;3.720;2023-05-16T09:37:18;17.10;99.90
20977;DHT22;10647;51.016;3.720;2023-05-16T09:39:51;17.00;99.90
20977;DHT22;10647;51.016;3.720;2023-05-16T09:42:24;16.90;99.90
20977;DHT22;10647;51.016;3.720;2023-05-16T09:44:54;17.00;99.90
20977;DHT22;10647;51.016;3.720;2023-05-16T09:47:41;17.40;99.90
20977;DHT22;10647;51.016;3.720;2023-05-16T09:50:13;17.70;99.90
20977;DHT22;10647;51.016;3.720;2023-05-16T09:52:44;18.20;99.90
20977;DHT22;10647;51.016;3.720;2023-05-16T09:55:14;18.30;99.90
20977;DHT22;10647;51.016;3.720;2023-05-16T09:57:41;18.20;99.90
20977;DHT22;10647;51.016;3.720;2023-05-16T10:00:13;18.10;99.90
20977;DHT22;10647;51.016;3.720;2023-05-16T10:02:41;18.00;99.90
20977;DHT22;10647;51.016;3.720;2023-05-16T10:05:09;17.70;99.90
20977;DHT22;10647;51.016;3.720;2023-05-16T10:07:38;17.80;99.90
20977;DHT22;10647;51.016;3.720;2023-05-16T10:10:07;17.50;99.90
20977;DHT22;10647;51.016;3.720;2023-05-16T10:12:36;17.30;99.90
20977;DHT22;10647;51.016;3.720;2023-05-16T10:15:05;17.10;99.90
20977;DHT22;10647;51.016;3.720;2023-05-16T10:17:35;17.00;99.90
20977;DHT22;10647;51.016;3.720;2023-05-16T10:20:05;17.00;99.90
20977;DHT22;10647;51.016;3.720;2023-05-16T10:22:35;17.40;99.90
20977;DHT22;10647;51.016;3.720;2023-05-16T10:25:24;17.60;99.90
20977;DHT22;10647;51.016;3.720;2023-05-16T10:27:52;17.70;99.90
20977;DHT22;10647;51.016;3.720;2023-05-16T10:30:20;17.80;99.90
20977;DHT22;10647;51.016;3.720;2023-05-16T10:32:49;17.80;99.90
20977;DHT22;10647;51.016;3.720;2023-05-16T10:35:18;17.80;99.90
20977;DHT22;10647;51.016;3.720;2023-05-16T10:37:48;17.80;99.90
20977;DHT22;10647;51.016;3.720;2023-05-16T10:40:17;17.90;99.90
20977;DHT22;10647;51.016;3.720;2023-05-16T10:42:55;18.00;99.90
20977;DHT22;10647;51.016;3.720;2023-05-16T10:45:23;18.10;99.90
20977;DHT22;10647;51.016;3.720;2023-05-16T10:47:55;18.40;99.90
20977;DHT22;10647;51.016;3.720;2023-05-16T10:50:44;18.90;99.90
20977;DHT22;10647;51.016;3.720;2023-05-16T10:53:32;19.30;99.90
20977;DHT22;10647;51.016;3.720;2023-05-16T11:01:26;19.40;99.90
20977;DHT22;10647;51.016;3.720;2023-05-16T11:06:33;19.70;99.90
20977;DHT22;10647;51.016;3.720;2023-05-16T11:09:19;19.40;99.90
20977;DHT22;10647;51.016;3.720;2023-05-16T11:12:03;18.80;99.90
20977;DHT22;10647;51.016;3.720;2023-05-16T11:14:39;18.90;99.90
20977;DHT22;10647;51.016;3.720;2023-05-16T11:17:21;19.10;99.90
20977;DHT22;10647;51.016;3.720;2023-05-16T11:19:51;19.70;99.90
20977;DHT22;10647;51.016;3.720;2023-05-16T11:22:23;19.50;99.90
20977;DHT22;10647;51.016;3.720;2023-05-16T11:24:56;19.10;99.90
20977;DHT22;10647;51.016;3.720;2023-05-16T11:27:31;19.00;99.90
20977;DHT22;10647;51.016;3.720;2023-05-16T11:32:49;19.70;99.90
20977;DHT22;10647;51.016;3.720;2023-05-16T11:35:17;20.00;99.90
20977;DHT22;10647;51.016;3.720;2023-05-16T11:37:47;20.30;99.90
20977;DHT22;10647;51.016;3.720;2023-05-16T11:40:16;20.30;99.90
20977;DHT22;10647;51.016;3.720;2023-05-16T11:42:46;20.20;99.90
20977;DHT22;10647;51.016;3.720;2023-05-16T11:45:19;20.50;99.90
20977;DHT22;10647;51.016;3.720;2023-05-16T11:47:51;21.00;99.90
20977;DHT22;10647;51.016;3.720;2023-05-16T11:50:22;21.00;99.90
20977;DHT22;10647;51.016;3.720;2023-05-16T11:52:52;20.70;99.90
20977;DHT22;10647;51.016;3.720;2023-05-16T11:55:23;20.40;99.90
20977;DHT22;10647;51.016;3.720;2023-05-16T11:57:51;20.50;99.90
20977;DHT22;10647;51.016;3.720;2023-05-16T12:00:24;20.80;99.90
20977;DHT22;10647;51.016;3.720;2023-05-16T12:02:57;21.20;99.90
20977;DHT22;10647;51.016;3.720;2023-05-16T12:05:24;21.40;99.90
20977;DHT22;10647;51.016;3.720;2023-05-16T12:07:53;20.90;99.90
20977;DHT22;10647;51.016;3.720;2023-05-16T12:10:22;20.60;99.90
20977;DHT22;10647;51.016;3.720;2023-05-16T12:12:51;20.90;99.90
20977;DHT22;10647;51.016;3.720;2023-05-16T12:15:19;21.20;99.90
20977;DHT22;10647;51.016;3.720;2023-05-16T12:17:47;21.00;99.90
20977;DHT22;10647;51.016;3.720;2023-05-16T12:20:15;20.70;99.90
20977;DHT22;10647;51.016;3.720;2023-05-16T12:22:44;20.60;99.90
20977;DHT22;10647;51.016;3.720;2023-05-16T12:25:28;20.50;99.90
20977;DHT22;10647;51.016;3.720;2023-05-16T12:27:59;20.90;99.90
20977;DHT22;10647;51.016;3.720;2023-05-16T12:30:29;21.00;99.90
20977;DHT22;10647;51.016;3.720;2023-05-16T12:33:11;21.00;99.90
20977;DHT22;10647;51.016;3.720;2023-05-16T12:35:41;20.70;99.90
20977;DHT22;10647;51.016;3.720;2023-05-16T12:38:11;20.70;99.90
20977;DHT22;10647;51.016;3.720;2023-05-16T12:40:41;20.90;99.90
20977;DHT22;10647;51.016;3.720;2023-05-16T12:43:21;21.30;99.90
20977;DHT22;10647;51.016;3.720;2023-05-16T12:45:52;21.50;99.90
20977;DHT22;10647;51.016;3.720;2023-05-16T12:48:21;21.20;99.90
20977;DHT22;10647;51.016;3.720;2023-05-16T12:50:50;21.20;99.90
20977;DHT22;10647;51.016;3.720;2023-05-16T12:53:18;21.20;99.90
20977;DHT22;10647;51.016;3.720;2023-05-16T12:55:46;21.40;99.90
20977;DHT22;10647;51.016;3.720;2023-05-16T12:58:13;21.40;99.90
20977;DHT22;10647;51.016;3.720;2023-05-16T13:00:41;23.80;99.90
20977;DHT22;10647;51.016;3.720;2023-05-16T13:03:12;27.60;99.90
20977;DHT22;10647;51.016;3.720;2023-05-16T13:05:41;30.10;94.90
20977;DHT22;10647;51.016;3.720;2023-05-16T13:08:08;32.70;86.50
20977;DHT22;10647;51.016;3.720;2023-05-16T13:10:36;32.10;74.40
20977;DHT22;10647;51.016;3.720;2023-05-16T13:13:03;31.60;70.10
20977;DHT22;10647;51.016;3.720;2023-05-16T13:15:34;33.30;66.80
20977;DHT22;10647;51.016;3.720;2023-05-16T13:18:02;34.80;62.60
20977;DHT22;10647;51.016;3.720;2023-05-16T13:20:30;35.90;57.90
20977;DHT22;10647;51.016;3.720;2023-05-16T13:22:58;36.60;55.80
20977;DHT22;10647;51.016;3.720;2023-05-16T13:25:26;36.60;52.10
20977;DHT22;10647;51.016;3.720;2023-05-16T13:27:53;35.80;51.60
20977;DHT22;10647;51.016;3.720;2023-05-16T13:30:21;35.60;51.90
20977;DHT22;10647;51.016;3.720;2023-05-16T13:32:48;35.60;49.40
20977;DHT22;10647;51.016;3.720;2023-05-16T13:35:18;35.80;48.60
20977;DHT22;10647;51.016;3.720;2023-05-16T13:37:49;37.20;48.80
20977;DHT22;10647;51.016;3.720;2023-05-16T13:40:16;36.50;47.50
20977;DHT22;10647;51.016;3.720;2023-05-16T13:42:43;37.50;46.00
20977;DHT22;10647;51.016;3.720;2023-05-16T13:45:12;37.70;45.20
20977;DHT22;10647;51.016;3.720;2023-05-16T13:47:40;38.10;43.60
20977;DHT22;10647;51.016;3.720;2023-05-16T13:50:08;38.30;44.90
20977;DHT22;10647;51.016;3.720;2023-05-16T13:52:36;39.00;42.10
20977;DHT22;10647;51.016;3.720;2023-05-16T13:55:04;38.40;42.30
20977;DHT22;10647;51.016;3.720;2023-05-16T13:57:34;38.10;42.80
20977;DHT22;10647;51.016;3.720;2023-05-16T14:00:02;38.90;41.20
20977;DHT22;10647;51.016;3.720;2023-05-16T14:02:32;38.70;40.80
20977;DHT22;10647;51.016;3.720;2023-05-16T14:04:59;38.70;40.80
20977;DHT22;10647;51.016;3.720;2023-05-16T14:07:27;38.80;39.60
20977;DHT22;10647;51.016;3.720;2023-05-16T14:09:54;38.50;39.00
20977;DHT22;10647;51.016;3.720;2023-05-16T14:12:27;38.60;40.10
20977;DHT22;10647;51.016;3.720;2023-05-16T14:14:52;38.70;39.00
20977;DHT22;10647;51.016;3.720;2023-05-16T14:17:20;38.40;38.20
20977;DHT22;10647;51.016;3.720;2023-05-16T14:19:47;38.20;39.20
20977;DHT22;10647;51.016;3.720;2023-05-16T14:22:15;38.30;39.40
20977;DHT22;10647;51.016;3.720;2023-05-16T14:24:44;38.70;39.90
20977;DHT22;10647;51.016;3.720;2023-05-16T14:27:12;38.70;37.80
20977;DHT22;10647;51.016;3.720;2023-05-16T14:29:40;38.70;39.00
20977;DHT22;10647;51.016;3.720;2023-05-16T14:32:09;38.50;38.10
20977;DHT22;10647;51.016;3.720;2023-05-16T14:34:38;38.60;38.60
20977;DHT22;10647;51.016;3.720;2023-05-16T14:37:05;38.90;37.20
20977;DHT22;10647;51.016;3.720;2023-05-16T14:39:33;39.10;37.20
20977;DHT22;10647;51.016;3.720;2023-05-16T14:42:00;38.30;37.40
20977;DHT22;10647;51.016;3.720;2023-05-16T14:44:28;37.80;37.40
20977;DHT22;10647;51.016;3.720;2023-05-16T14:46:55;37.00;38.40
20977;DHT22;10647;51.016;3.720;2023-05-16T14:49:23;37.70;38.60
20977;DHT22;10647;51.016;3.720;2023-05-16T14:51:50;37.60;38.00
20977;DHT22;10647;51.016;3.720;2023-05-16T14:54:18;37.60;37.80
20977;DHT22;10647;51.016;3.720;2023-05-16T14:56:45;37.40;37.50
20977;DHT22;10647;51.016;3.720;2023-05-16T14:59:13;37.20;37.60
20977;DHT22;10647;51.016;3.720;2023-05-16T15:01:41;37.20;37.90
20977;DHT22;10647;51.016;3.720;2023-05-16T15:04:09;37.20;37.30
20977;DHT22;10647;51.016;3.720;2023-05-16T15:06:36;37.10;37.70
20977;DHT22;10647;51.016;3.720;2023-05-16T15:09:04;37.40;37.30
20977;DHT22;10647;51.016;3.720;2023-05-16T15:11:31;37.10;37.10
20977;DHT22;10647;51.016;3.720;2023-05-16T15:14:05;37.20;37.60
20977;DHT22;10647;51.016;3.720;2023-05-16T15:16:33;36.90;37.20
20977;DHT22;10647;51.016;3.720;2023-05-16T15:19:06;35.60;38.40
20977;DHT22;10647;51.016;3.720;2023-05-16T15:21:34;34.10;40.30
20977;DHT22;10647;51.016;3.720;2023-05-16T15:24:01;34.00;40.40
20977;DHT22;10647;51.016;3.720;2023-05-16T15:26:29;34.40;40.50
20977;DHT22;10647;51.016;3.720;2023-05-16T15:28:57;32.20;40.90
20977;DHT22;10647;51.016;3.720;2023-05-16T15:31:25;29.80;44.10
20977;DHT22;10647;51.016;3.720;2023-05-16T15:33:53;28.10;46.80
20977;DHT22;10647;51.016;3.720;2023-05-16T15:36:20;26.70;48.80
20977;DHT22;10647;51.016;3.720;2023-05-16T15:38:48;25.50;50.80
20977;DHT22;10647;51.016;3.720;2023-05-16T15:41:15;24.90;52.50
20977;DHT22;10647;51.016;3.720;2023-05-16T15:43:43;24.10;54.80
20977;DHT22;10647;51.016;3.720;2023-05-16T15:46:11;23.60;55.60
20977;DHT22;10647;51.016;3.720;2023-05-16T15:48:39;23.00;57.40
20977;DHT22;10647;51.016;3.720;2023-05-16T15:51:08;23.90;57.10
20977;DHT22;10647;51.016;3.720;2023-05-16T15:53:36;23.50;56.30
20977;DHT22;10647;51.016;3.720;2023-05-16T15:56:04;22.90;57.80
20977;DHT22;10647;51.016;3.720;2023-05-16T15:58:34;22.60;59.40
20977;DHT22;10647;51.016;3.720;2023-05-16T16:01:02;22.40;59.50
20977;DHT22;10647;51.016;3.720;2023-05-16T16:03:29;22.30;59.90
20977;DHT22;10647;51.016;3.720;2023-05-16T16:05:57;22.20;60.20
20977;DHT22;10647;51.016;3.720;2023-05-16T16:08:24;22.00;60.00
20977;DHT22;10647;51.016;3.720;2023-05-16T16:10:52;21.70;60.80
20977;DHT22;10647;51.016;3.720;2023-05-16T16:13:20;21.50;61.70
20977;DHT22;10647;51.016;3.720;2023-05-16T16:15:49;21.20;62.00